createdAt,value
2019-06-20T00:00:32.461Z,5.81
2019-06-20T00:05:32.912Z,7.94
2019-06-20T00:10:33.522Z,10.12
2019-06-20T00:15:34.338Z,8.15
2019-06-20T00:20:35.068Z,6.81
2019-06-20T00:25:36.050Z,5.59
2019-06-20T00:30:36.899Z,5.42
2019-06-20T00:35:37.700Z,5.74
2019-06-20T00:40:38.409Z,5.73
2019-06-20T00:45:38.887Z,5.57
2019-06-20T00:50:39.639Z,5.71
2019-06-20T00:55:40.292Z,5.46
2019-06-20T01:00:41.045Z,5.80
2019-06-20T01:05:41.808Z,5.78
2019-06-20T01:10:42.500Z,5.88
2019-06-20T01:15:43.290Z,5.69
2019-06-20T01:20:43.713Z,5.84
2019-06-20T01:25:44.323Z,6.04
2019-06-20T01:30:44.897Z,6.10
2019-06-20T01:35:45.435Z,6.13
2019-06-20T01:40:46.187Z,6.41
2019-06-20T01:45:46.789Z,6.38
2019-06-20T01:50:47.283Z,6.63
2019-06-20T01:55:47.988Z,6.40
2019-06-20T02:00:48.491Z,4.94
2019-06-20T02:05:49.134Z,4.70
2019-06-20T02:10:49.780Z,4.47
2019-06-20T02:15:50.235Z,4.63
2019-06-20T02:20:50.788Z,4.56
2019-06-20T02:25:51.449Z,4.88
2019-06-20T02:30:52.074Z,4.97
2019-06-20T02:35:52.704Z,4.68
2019-06-20T02:40:53.403Z,4.27
2019-06-20T02:45:53.928Z,4.08
2019-06-20T02:50:54.927Z,4.18
2019-06-20T02:55:55.483Z,4.38
2019-06-20T03:00:55.947Z,4.07
2019-06-20T03:05:56.357Z,4.20
2019-06-20T03:10:57.005Z,3.85
2019-06-20T03:15:57.522Z,4.18
2019-06-20T03:20:58.339Z,4.39
2019-06-20T03:25:58.812Z,4.79
2019-06-20T03:30:59.364Z,4.69
2019-06-20T03:36:00.165Z,4.76
2019-06-20T03:41:01.099Z,4.81
2019-06-20T03:46:01.838Z,4.83
2019-06-20T03:51:02.458Z,5.42
2019-06-20T03:56:03.029Z,5.53
2019-06-20T04:01:03.823Z,5.42
2019-06-20T04:06:04.447Z,5.67
2019-06-20T04:11:05.144Z,6.10
2019-06-20T04:16:05.632Z,6.31
2019-06-20T04:21:06.226Z,6.52
2019-06-20T04:26:06.783Z,6.68
2019-06-20T04:31:07.350Z,6.82
2019-06-20T04:36:08.045Z,7.88
2019-06-20T04:41:09.731Z,7.71
2019-06-20T04:46:09.414Z,8.14
2019-06-20T04:51:09.968Z,8.15
2019-06-20T04:56:10.526Z,8.14
2019-06-20T05:01:11.016Z,8.55
2019-06-20T05:06:11.514Z,8.65
2019-06-20T05:11:12.205Z,9.26
2019-06-20T05:16:12.848Z,10.66
2019-06-20T05:21:13.599Z,10.64
2019-06-20T05:26:14.331Z,11.40
2019-06-20T05:31:15.045Z,11.18
2019-06-20T05:36:15.743Z,11.38
2019-06-20T05:41:16.524Z,11.34
2019-06-20T05:46:17.051Z,13.54
2019-06-20T05:51:17.805Z,12.30
2019-06-20T05:56:18.327Z,15.68
2019-06-20T06:01:18.967Z,17.98
2019-06-20T06:06:19.537Z,22.54
2019-06-20T06:11:20.513Z,27.05
2019-06-20T06:16:27.013Z,27.51
2019-06-20T06:21:21.811Z,27.14
2019-06-20T06:26:22.360Z,26.88
2019-06-20T06:31:22.800Z,27.67
2019-06-20T06:36:24.368Z,28.42
2019-06-20T06:41:24.092Z,27.91
2019-06-20T06:46:25.038Z,28.18
2019-06-20T06:51:25.825Z,27.33
2019-06-20T06:56:26.549Z,29.00
2019-06-20T07:01:27.292Z,30.95
2019-06-20T07:06:27.886Z,31.83
2019-06-20T07:11:28.554Z,32.59
2019-06-20T07:16:29.228Z,32.58
2019-06-20T07:21:29.690Z,33.66
2019-06-20T07:26:30.614Z,33.70
2019-06-20T07:31:31.051Z,33.72
2019-06-20T07:36:31.798Z,32.01
2019-06-20T07:41:32.831Z,32.11
2019-06-20T07:46:32.783Z,32.11
2019-06-20T07:51:33.473Z,32.78
2019-06-20T07:56:34.469Z,31.79
2019-06-20T08:01:38.063Z,31.37
2019-06-20T08:06:35.878Z,27.93
2019-06-20T08:11:36.579Z,25.50
2019-06-20T08:16:37.849Z,22.08
2019-06-20T08:21:37.573Z,20.82
2019-06-20T08:26:38.105Z,21.29
2019-06-20T08:31:38.744Z,21.42
2019-06-20T08:36:39.244Z,21.56
2019-06-20T08:41:39.904Z,21.36
2019-06-20T08:46:40.591Z,21.85
2019-06-20T08:51:41.727Z,22.04
2019-06-20T08:56:41.608Z,21.06
2019-06-20T09:01:43.856Z,20.69
2019-06-20T09:06:42.597Z,21.77
2019-06-20T09:11:43.217Z,21.38
2019-06-20T09:16:44.006Z,21.21
2019-06-20T09:21:45.909Z,20.88
2019-06-20T09:26:46.702Z,21.53
2019-06-20T09:31:47.353Z,21.52
2019-06-20T09:36:48.136Z,21.59
2019-06-20T09:41:51.035Z,22.06
2019-06-20T09:46:50.644Z,21.09
2019-06-20T09:51:50.008Z,21.25
2019-06-20T09:56:53.077Z,20.09
2019-06-20T10:01:50.035Z,20.58
2019-06-20T10:06:50.195Z,20.53
2019-06-20T10:11:51.976Z,22.12
2019-06-20T10:16:54.074Z,20.54
2019-06-20T10:21:53.852Z,19.89
2019-06-20T10:26:53.579Z,19.59
2019-06-20T10:31:55.058Z,17.12
2019-06-20T10:36:56.992Z,14.44
2019-06-20T10:41:57.171Z,12.42
2019-06-20T10:46:55.705Z,12.40
2019-06-20T10:51:55.403Z,9.46
2019-06-20T10:56:55.784Z,7.50
2019-06-20T11:01:56.489Z,7.12
2019-06-20T11:06:57.057Z,6.65
2019-06-20T11:11:57.737Z,6.99
2019-06-20T11:16:58.489Z,7.90
2019-06-20T11:21:59.243Z,8.16
2019-06-20T11:26:59.748Z,8.18
2019-06-20T11:32:00.365Z,7.65
2019-06-20T11:37:00.720Z,7.71
2019-06-20T11:42:01.611Z,7.62
2019-06-20T11:47:02.303Z,8.43
2019-06-20T11:52:03.169Z,8.32
2019-06-20T11:57:03.724Z,8.91
2019-06-20T12:02:04.532Z,8.63
2019-06-20T12:07:05.192Z,9.27
2019-06-20T12:12:06.123Z,9.63
2019-06-20T12:17:06.589Z,10.85
2019-06-20T12:22:07.208Z,10.25
2019-06-20T12:27:07.733Z,10.51
2019-06-20T12:32:10.059Z,9.99
2019-06-20T12:37:08.989Z,9.77
2019-06-20T12:42:09.566Z,9.87
2019-06-20T12:47:09.967Z,7.83
2019-06-20T12:52:10.920Z,8.43
2019-06-20T12:57:11.512Z,8.33
2019-06-20T13:02:12.239Z,7.57
2019-06-20T13:07:12.843Z,8.11
2019-06-20T13:12:14.131Z,7.90
2019-06-20T13:17:13.984Z,8.44
2019-06-20T13:22:15.934Z,7.83
2019-06-20T13:27:15.625Z,8.82
2019-06-20T13:32:16.537Z,9.41
2019-06-20T13:37:17.347Z,8.83
2019-06-20T13:42:18.090Z,8.27
2019-06-20T13:47:19.693Z,8.12
2019-06-20T13:52:19.811Z,9.15
2019-06-20T13:57:19.481Z,7.90
2019-06-20T14:02:20.236Z,7.99
2019-06-20T14:07:21.259Z,6.96
2019-06-20T14:12:21.024Z,6.23
2019-06-20T14:17:21.560Z,8.49
2019-06-20T14:22:22.184Z,8.87
2019-06-20T14:27:22.784Z,9.06
2019-06-20T14:32:23.523Z,8.20
2019-06-20T14:37:24.324Z,7.11
2019-06-20T14:42:25.776Z,7.00
2019-06-20T14:47:25.662Z,7.04
2019-06-20T14:52:26.418Z,6.47
2019-06-20T14:57:26.998Z,6.45
2019-06-20T15:02:38.013Z,7.44
2019-06-20T15:07:28.099Z,6.90
2019-06-20T15:12:28.775Z,7.38
2019-06-20T15:17:29.460Z,8.92
2019-06-20T15:22:30.551Z,8.07
2019-06-20T15:27:30.558Z,8.26
2019-06-20T15:32:31.410Z,8.79
2019-06-20T15:37:32.000Z,9.23
2019-06-20T15:42:34.353Z,10.06
2019-06-20T15:47:32.924Z,9.35
2019-06-20T15:52:34.110Z,8.82
2019-06-20T15:57:34.037Z,7.45
2019-06-20T16:02:35.293Z,6.50
2019-06-20T16:07:35.204Z,4.83
2019-06-20T16:12:36.020Z,3.91
2019-06-20T16:17:36.723Z,4.26
2019-06-20T16:22:37.279Z,4.95
2019-06-20T16:27:38.093Z,5.68
2019-06-20T16:32:38.998Z,5.33
2019-06-20T16:37:39.552Z,6.18
2019-06-20T16:42:40.412Z,7.23
2019-06-20T16:47:41.181Z,4.75
2019-06-20T16:52:42.433Z,5.04
2019-06-20T16:57:42.047Z,5.84
2019-06-20T17:02:43.128Z,3.99
2019-06-20T17:07:42.828Z,3.80
2019-06-20T17:12:43.694Z,3.39
2019-06-20T17:17:50.718Z,4.88
2019-06-20T17:22:45.160Z,4.51
2019-06-20T17:27:44.982Z,6.01
2019-06-20T17:32:46.482Z,5.19
2019-06-20T17:37:46.821Z,6.66
2019-06-20T17:42:47.008Z,6.72
2019-06-20T17:47:47.121Z,7.93
2019-06-20T17:52:46.873Z,6.22
2019-06-20T17:57:47.788Z,5.39
2019-06-20T18:02:48.466Z,9.89
2019-06-20T18:07:50.284Z,6.52
2019-06-20T18:12:50.138Z,6.23
2019-06-20T18:17:50.719Z,6.42
2019-06-20T18:22:56.763Z,7.14
2019-06-20T18:27:51.409Z,10.31
2019-06-20T18:32:53.162Z,18.20
2019-06-20T18:37:53.201Z,11.58
2019-06-20T18:42:53.667Z,12.13
2019-06-20T18:47:53.455Z,11.13
2019-06-20T18:52:54.047Z,10.67
2019-06-20T18:57:56.782Z,7.46
2019-06-20T19:02:55.411Z,7.05
2019-06-20T19:07:56.405Z,7.71
2019-06-20T19:12:58.130Z,7.68
2019-06-20T19:17:57.633Z,6.99
2019-06-20T19:22:58.388Z,7.87
2019-06-20T19:27:58.719Z,7.51
2019-06-20T19:33:00.071Z,8.16
2019-06-20T19:37:59.549Z,7.54
2019-06-20T19:43:00.090Z,9.78
2019-06-20T19:48:00.429Z,10.49
2019-06-20T19:53:00.845Z,9.39
2019-06-20T19:58:01.381Z,9.02
2019-06-20T20:03:01.910Z,8.89
2019-06-20T20:08:04.852Z,9.73
2019-06-20T20:13:03.618Z,10.09
2019-06-20T20:18:04.122Z,10.28
2019-06-20T20:23:04.825Z,10.52
2019-06-20T20:28:05.187Z,10.80
2019-06-20T20:33:05.761Z,12.23
2019-06-20T20:38:06.268Z,11.43
2019-06-20T20:43:06.721Z,11.05
2019-06-20T20:48:07.250Z,9.98
2019-06-20T20:53:07.802Z,10.00
2019-06-20T20:58:08.316Z,10.13
2019-06-20T21:03:08.784Z,9.99
2019-06-20T21:08:09.231Z,11.07
2019-06-20T21:13:09.733Z,11.37
2019-06-20T21:18:10.124Z,11.07
2019-06-20T21:23:10.663Z,10.94
2019-06-20T21:28:11.045Z,10.92
2019-06-20T21:33:11.648Z,11.28
2019-06-20T21:38:12.050Z,10.45
2019-06-20T21:43:12.693Z,10.75
2019-06-20T21:48:13.104Z,9.51
2019-06-20T21:53:13.613Z,9.30
2019-06-20T21:58:14.114Z,9.24
2019-06-20T22:03:14.976Z,8.31
2019-06-20T22:08:15.391Z,8.50
2019-06-20T22:13:15.967Z,8.88
2019-06-20T22:18:16.368Z,7.84
2019-06-20T22:23:16.996Z,8.18
2019-06-20T22:28:17.433Z,8.48
2019-06-20T22:33:18.026Z,7.79
2019-06-20T22:38:18.391Z,7.55
2019-06-20T22:43:18.887Z,6.52
2019-06-20T22:48:19.270Z,6.32
2019-06-20T22:53:19.736Z,6.00
2019-06-20T22:58:20.103Z,5.36
2019-06-20T23:03:20.696Z,4.53
2019-06-20T23:08:21.107Z,4.85
2019-06-20T23:13:21.639Z,4.44
2019-06-20T23:18:22.106Z,3.72
2019-06-20T23:23:22.434Z,3.68
2019-06-20T23:28:22.952Z,3.92
2019-06-20T23:33:23.331Z,3.89
2019-06-20T23:38:24.705Z,4.02
2019-06-20T23:43:24.855Z,3.98
2019-06-20T23:48:24.240Z,4.16
2019-06-20T23:53:24.634Z,4.27
2019-06-20T23:58:25.072Z,4.07
